ENFL

Florø Airport

Florø, Norway
METAR ENFL 210420Z AUTO 11012KT 9999NDV SCT056/// 02/M06 Q1009
Observed Flight Rules
Jan-21 @ 04:20 UTC (26 minutes ago)
Wind Clouds
110° at 12 knots
  • Scattered at 5,600' AGL
Temperatures Readings
Current 2°C / 36°F
Dewpoint -6°C / 21°F
Humidity 56%
Altimeter 29.79" Hg
Pressure 1009 hPa
Elevation 9
METAR ENFL 210420Z AUTO 11012KT 9999NDV SCT056/// 02/M06 Q1009
Observed Flight Rules
Jan-21 @ 04:20 UTC
(26 minutes ago)
Wind
110° at 12 knots
Clouds
  • Scattered at 5,600' AGL
Temperature Dewpoint
2°C / 36°F -6°C / 21°F
Humidity Altimeter Pressure
56% 29.79" Hg 1009 hPa